Terminal Aerodrome Forecast
Issued by NWS Blacksburg, VA

Current Version | Previous Version | Text Only | Print | Product List | Glossary Off
Versions: 1 2 3 4 5 6 7 8 9 10 11 12 13 14 15 16 17 18 19 20 21 22 23

000
FTUS41 KRNK 172322
TAFBLF
TAF
KBLF 172322Z 1800/1824 25010KT P6SM SKC
     FM181000 25006KT P6SM BKN250
     FM181800 26007KT P6SM BKN050
     FM182100 26008KT P6SM OVC030=

USA.gov is the U.S. government's official web portal to all federal, state and local government web resources and services.